Time;durP1;ratioP1;P1;durP2;ratioP2;P2;SDS_P1;SDS_P2;PMS_P1;PMS_P2;Temp;Humidity;BMP_temperature;BMP_pressure;BME280_temperature;BME280_humidity;BME280_pressure;Samples;Min_cycle;Max_cycle;Signal;HPM_P1;HPM_P2
2021/07/03 00:01:58;;;;;;;6.38;4.82;;;;;;;16.60;73.94;100597.41;5033744;28;20486;-75
2021/07/03 00:04:24;;;;;;;5.95;4.90;;;;;;;16.54;72.87;100596.34;5026562;28;20383;-76
2021/07/03 00:06:49;;;;;;;5.15;4.57;;;;;;;16.52;74.47;100594.88;5038970;28;20033;-76
2021/07/03 00:09:16;;;;;;;7.07;5.40;;;;;;;16.47;75.19;100592.75;5038548;28;20060;-76
2021/07/03 00:11:41;;;;;;;5.50;4.55;;;;;;;16.45;73.67;100584.13;5041052;28;20101;-75
2021/07/03 00:14:07;;;;;;;6.38;4.32;;;;;;;16.49;73.65;100587.22;5039833;28;20158;-76
2021/07/03 00:16:33;;;;;;;5.28;4.43;;;;;;;16.48;75.50;100583.72;5046173;28;20033;-76
2021/07/03 00:18:59;;;;;;;7.07;5.45;;;;;;;16.39;76.68;100592.03;5028280;28;20037;-75
2021/07/03 00:21:24;;;;;;;7.95;6.00;;;;;;;16.33;76.32;100590.97;5046045;28;20030;-75
2021/07/03 00:23:50;;;;;;;5.72;4.65;;;;;;;16.33;74.96;100589.13;5036411;28;20384;-76
2021/07/03 00:26:15;;;;;;;6.32;5.07;;;;;;;16.37;77.16;100591.41;5029343;28;20048;-76
2021/07/03 00:28:40;;;;;;;8.20;5.93;;;;;;;16.31;76.57;100595.66;5044813;28;20065;-76
2021/07/03 00:31:06;;;;;;;6.35;5.10;;;;;;;16.32;74.89;100590.13;5045240;28;20499;-76
2021/07/03 00:33:31;;;;;;;7.07;5.07;;;;;;;16.39;74.86;100592.03;5037751;28;20057;-75
2021/07/03 00:35:56;;;;;;;5.97;4.45;;;;;;;16.40;76.72;100580.34;5045609;28;20121;-76
2021/07/03 00:38:22;;;;;;;7.15;5.15;;;;;;;16.36;75.43;100585.25;5044548;28;20040;-76
2021/07/03 00:40:47;;;;;;;4.65;4.15;;;;;;;16.33;75.13;100581.09;5039939;28;20037;-75
2021/07/03 00:43:13;;;;;;;5.50;4.60;;;;;;;16.31;76.06;100582.31;5038296;28;20030;-76
2021/07/03 00:45:38;;;;;;;5.40;4.43;;;;;;;16.26;75.19;100584.72;5045507;28;20030;-76
2021/07/03 00:48:04;;;;;;;5.60;4.70;;;;;;;16.21;76.35;100584.44;5037062;28;20029;-76
2021/07/03 00:50:29;;;;;;;6.05;4.72;;;;;;;16.15;76.26;100594.03;5037087;28;20420;-76
2021/07/03 00:52:55;;;;;;;5.53;4.68;;;;;;;16.09;77.47;100589.44;5040002;28;20040;-77
2021/07/03 00:55:20;;;;;;;6.15;4.75;;;;;;;16.05;77.32;100585.50;5054472;28;20038;-76
2021/07/03 00:57:46;;;;;;;6.90;5.32;;;;;;;15.99;78.09;100592.38;5044414;28;20033;-76
2021/07/03 01:00:13;;;;;;;5.40;4.78;;;;;;;15.95;76.53;100592.97;5043568;28;20543;-75
2021/07/03 01:02:39;;;;;;;6.85;5.38;;;;;;;15.90;77.68;100597.00;5035939;28;20029;-75
2021/07/03 01:05:06;;;;;;;7.35;5.68;;;;;;;15.86;78.58;100601.03;5036573;28;20101;-75
2021/07/03 01:07:32;;;;;;;6.32;5.10;;;;;;;15.84;78.02;100600.41;5036763;28;20041;-76
2021/07/03 01:09:58;;;;;;;6.68;5.53;;;;;;;15.81;78.86;100594.63;5041900;28;20030;-76
2021/07/03 01:12:23;;;;;;;6.40;4.80;;;;;;;15.79;77.72;100592.13;5040492;28;20033;-76
2021/07/03 01:14:49;;;;;;;5.75;4.85;;;;;;;15.77;78.18;100591.47;5041156;28;20041;-76
2021/07/03 01:17:16;;;;;;;5.72;4.63;;;;;;;15.75;77.43;100596.16;5044674;28;20134;-75
2021/07/03 01:19:42;;;;;;;6.03;4.97;;;;;;;15.73;78.10;100595.53;5026780;28;20033;-76
2021/07/03 01:22:09;;;;;;;5.70;4.80;;;;;;;15.75;76.63;100587.34;5033657;28;20037;-76
2021/07/03 01:24:36;;;;;;;5.80;5.00;;;;;;;15.77;77.60;100586.16;5043019;28;20095;-76
2021/07/03 01:27:02;;;;;;;6.65;5.35;;;;;;;15.81;78.27;100587.44;5028985;28;20034;-76
2021/07/03 01:29:27;;;;;;;6.95;5.38;;;;;;;15.80;78.08;100585.81;5035842;28;20033;-76
2021/07/03 01:31:55;;;;;;;6.20;5.07;;;;;;;15.79;78.03;100585.97;5040340;28;20448;-75
2021/07/03 01:34:24;;;;;;;5.97;4.93;;;;;;;15.83;76.40;100580.09;5040018;28;20474;-75
2021/07/03 01:36:49;;;;;;;7.00;5.68;;;;;;;15.88;75.86;100583.03;5052285;28;20523;-75
2021/07/03 01:39:15;;;;;;;9.07;6.20;;;;;;;15.88;76.97;100591.03;5042958;28;20093;-75
2021/07/03 01:41:42;;;;;;;6.25;5.20;;;;;;;15.89;78.56;100584.66;5060974;28;20036;-76
2021/07/03 01:44:08;;;;;;;6.90;5.68;;;;;;;15.86;78.86;100593.03;5039984;28;20163;-76
2021/07/03 01:46:34;;;;;;;6.82;5.32;;;;;;;15.82;78.74;100588.25;5036524;28;20026;-75
2021/07/03 01:49:05;;;;;;;6.38;5.10;;;;;;;15.82;78.67;100585.59;5035022;28;20056;-75
2021/07/03 01:51:31;;;;;;;;;;;;;;;15.84;79.08;100586.25;5068588;28;20097;-75
2021/07/03 01:53:56;;;;;;;8.05;5.82;;;;;;;15.87;76.41;100588.53;5039334;28;19944;-75
2021/07/03 01:56:22;;;;;;;6.60;5.65;;;;;;;15.81;77.20;100582.09;5036798;28;20041;-75
2021/07/03 01:58:47;;;;;;;6.97;5.00;;;;;;;15.76;77.63;100584.50;5058974;28;20033;-75
2021/07/03 02:01:13;;;;;;;6.07;4.85;;;;;;;15.74;77.15;100588.38;5043403;28;20102;-76
2021/07/03 02:03:38;;;;;;;6.60;5.30;;;;;;;15.69;77.60;100589.72;5036506;28;20101;-75
2021/07/03 02:06:04;;;;;;;5.88;4.90;;;;;;;15.65;77.96;100588.41;5035962;28;20029;-76
2021/07/03 02:08:31;;;;;;;5.43;4.55;;;;;;;15.61;78.48;100583.63;5033376;28;20021;-76
2021/07/03 02:10:56;;;;;;;6.72;5.70;;;;;;;15.54;79.37;100580.88;5035530;28;20032;-76
2021/07/03 02:13:22;;;;;;;6.20;4.97;;;;;;;15.48;78.38;100578.94;5036919;28;20025;-76
2021/07/03 02:15:47;;;;;;;6.45;5.60;;;;;;;15.46;80.03;100586.28;5049720;28;20033;-76
2021/07/03 02:18:12;;;;;;;7.10;5.35;;;;;;;15.44;80.38;100581.13;5039711;28;20049;-75
2021/07/03 02:20:38;;;;;;;7.28;5.75;;;;;;;15.41;79.96;100580.69;5043134;28;20021;-76
2021/07/03 02:23:04;;;;;;;6.15;5.20;;;;;;;15.36;79.91;100583.88;5040587;28;20032;-75
2021/07/03 02:25:32;;;;;;;6.03;5.18;;;;;;;15.32;79.32;100582.59;5039831;28;20025;-76
2021/07/03 02:27:57;;;;;;;5.88;4.78;;;;;;;15.29;78.99;100577.63;5035044;28;20073;-76
2021/07/03 02:30:23;;;;;;;6.07;4.85;;;;;;;15.26;79.72;100576.16;5035186;28;20137;-75
2021/07/03 02:32:49;;;;;;;5.80;4.82;;;;;;;15.27;79.65;100576.97;5039441;28;20041;-76
2021/07/03 02:35:17;;;;;;;6.38;5.00;;;;;;;15.24;79.37;100575.50;5034024;28;20040;-76
2021/07/03 02:37:44;;;;;;;6.50;5.53;;;;;;;15.21;80.33;100583.88;5037220;28;20467;-76
2021/07/03 02:40:11;;;;;;;6.93;5.28;;;;;;;15.15;80.44;100581.09;5053910;28;20098;-77
2021/07/03 02:42:38;;;;;;;6.03;5.20;;;;;;;15.12;80.85;100581.47;5036529;28;20025;-76
2021/07/03 02:45:05;;;;;;;8.70;6.30;;;;;;;15.07;81.70;100582.81;5053024;28;20042;-76
2021/07/03 02:47:30;;;;;;;6.55;5.60;;;;;;;15.05;81.03;100586.66;5034659;28;20033;-76
2021/07/03 02:49:56;;;;;;;8.52;6.40;;;;;;;15.02;81.44;100593.19;5032690;28;20426;-76
2021/07/03 02:52:21;;;;;;;7.50;6.45;;;;;;;14.95;81.04;100594.91;5031915;28;20128;-76
2021/07/03 02:54:48;;;;;;;8.15;6.50;;;;;;;14.93;82.12;100601.44;5040874;28;20049;-76
2021/07/03 02:57:14;;;;;;;7.50;6.00;;;;;;;14.92;81.53;100607.75;5040132;28;20063;-76
2021/07/03 02:59:39;;;;;;;7.90;5.55;;;;;;;14.91;80.19;100601.59;5031549;28;20057;-76
2021/07/03 03:02:05;;;;;;;5.15;4.60;;;;;;;14.98;79.09;100604.38;5030381;28;20049;-76
2021/07/03 03:04:30;;;;;;;6.25;4.50;;;;;;;15.02;80.22;100595.84;5034808;28;20521;-76
2021/07/03 03:06:55;;;;;;;5.07;4.20;;;;;;;15.06;81.07;100605.16;5037522;28;20522;-76
2021/07/03 03:09:20;;;;;;;5.95;4.60;;;;;;;15.07;79.80;100600.66;5032551;28;20564;-76
2021/07/03 03:11:46;;;;;;;6.63;5.20;;;;;;;15.05;80.24;100602.66;5031990;28;20048;-76
2021/07/03 03:14:11;;;;;;;7.47;5.70;;;;;;;15.03;80.69;100586.84;5039431;28;20044;-76
2021/07/03 03:16:36;;;;;;;6.05;4.70;;;;;;;15.04;80.16;100599.16;5032372;28;20033;-76
2021/07/03 03:19:02;;;;;;;5.85;4.45;;;;;;;15.06;81.15;100594.50;5030555;28;20237;-76
2021/07/03 03:21:27;;;;;;;7.57;5.55;;;;;;;15.02;80.81;100593.19;5031875;28;20030;-76
2021/07/03 03:23:53;;;;;;;6.68;5.47;;;;;;;14.97;81.31;100594.72;5031894;28;20044;-77
2021/07/03 03:26:18;;;;;;;7.78;6.05;;;;;;;14.93;81.64;100596.09;5039690;28;20083;-76
2021/07/03 03:28:43;;;;;;;6.90;5.63;;;;;;;14.86;81.69;100580.00;5031851;28;20034;-76
2021/07/03 03:31:09;;;;;;;8.18;5.90;;;;;;;14.82;81.45;100589.34;5031615;28;20036;-76
2021/07/03 03:33:34;;;;;;;7.38;6.40;;;;;;;14.81;81.57;100585.84;5033158;28;20079;-77
2021/07/03 03:36:00;;;;;;;6.53;5.32;;;;;;;14.77;81.28;100591.72;5032130;28;20494;-76
2021/07/03 03:38:26;;;;;;;7.03;5.88;;;;;;;14.75;81.59;100583.06;5029704;28;20037;-77
2021/07/03 03:40:51;;;;;;;7.55;5.97;;;;;;;14.73;82.22;100587.75;5030733;28;20037;-77
2021/07/03 03:43:16;;;;;;;7.00;5.50;;;;;;;14.70;81.42;100588.09;5031248;28;20033;-77
2021/07/03 03:45:42;;;;;;;6.85;5.40;;;;;;;14.68;82.06;100587.44;5031562;28;20379;-76
2021/07/03 03:48:07;;;;;;;7.32;5.80;;;;;;;14.67;82.28;100589.28;5036933;28;20029;-77
2021/07/03 03:50:34;;;;;;;6.60;5.07;;;;;;;14.68;81.76;100590.94;5031202;28;20025;-77
2021/07/03 03:53:00;;;;;;;5.78;4.55;;;;;;;14.69;80.67;100586.47;5031542;28;20073;-76
2021/07/03 03:55:27;;;;;;;6.10;5.00;;;;;;;14.69;81.07;100586.47;5031505;28;20061;-76
2021/07/03 03:57:52;;;;;;;5.78;4.90;;;;;;;14.67;81.68;100583.97;5031036;28;20030;-76
2021/07/03 04:00:18;;;;;;;6.32;5.15;;;;;;;14.65;82.30;100589.47;5030480;28;20035;-76
2021/07/03 04:02:44;;;;;;;6.95;5.30;;;;;;;14.67;82.41;100588.47;5035693;28;20067;-76
2021/07/03 04:05:11;;;;;;;7.05;5.90;;;;;;;14.66;83.48;100587.66;5046057;28;20332;-76
2021/07/03 04:07:36;;;;;;;7.35;6.20;;;;;;;14.67;83.39;100593.78;5042134;28;20034;-76
2021/07/03 04:10:04;;;;;;;8.18;5.32;;;;;;;14.67;83.30;100593.78;5042417;28;20099;-76
2021/07/03 04:12:29;;;;;;;6.47;5.20;;;;;;;14.69;82.71;100589.94;5034967;28;20494;-76
2021/07/03 04:14:54;;;;;;;5.85;5.22;;;;;;;14.70;82.48;100588.09;5044045;28;20040;-76
2021/07/03 04:17:20;;;;;;;6.13;5.10;;;;;;;14.72;82.85;100588.75;5044511;28;20080;-77
2021/07/03 04:19:45;;;;;;;6.75;6.03;;;;;;;14.72;82.45;100597.56;5035552;28;20534;-76
2021/07/03 04:22:10;;;;;;;6.15;4.63;;;;;;;14.72;82.62;100589.59;5050367;28;20044;-76
2021/07/03 04:24:36;;;;;;;6.97;5.50;;;;;;;14.79;82.08;100592.38;5037611;28;20121;-76
2021/07/03 04:27:03;;;;;;;7.30;5.82;;;;;;;14.89;81.04;100592.94;5036579;28;20442;-76
2021/07/03 04:29:28;;;;;;;6.43;5.30;;;;;;;14.92;82.94;100592.63;5036365;28;20052;-76
2021/07/03 04:31:54;;;;;;;8.10;6.30;;;;;;;14.98;82.38;100596.38;5052797;28;20494;-76
2021/07/03 04:34:19;;;;;;;8.32;6.13;;;;;;;15.05;81.09;100592.81;5051998;28;20040;-76
2021/07/03 04:36:44;;;;;;;7.05;5.70;;;;;;;15.09;82.12;100590.63;5037039;28;20068;-76
2021/07/03 04:39:10;;;;;;;7.28;5.80;;;;;;;15.09;82.22;100598.63;5043673;28;20169;-76
2021/07/03 04:41:37;;;;;;;6.53;5.55;;;;;;;15.12;81.71;100592.13;5041991;28;20061;-76
2021/07/03 04:44:02;;;;;;;6.93;5.63;;;;;;;15.17;80.99;100584.41;5026223;28;20033;-76
2021/07/03 04:46:27;;;;;;;7.30;4.90;;;;;;;15.23;80.65;100587.19;5032998;28;20044;-76
2021/07/03 04:48:53;;;;;;;6.82;4.93;;;;;;;15.32;80.26;100585.25;5045670;28;20045;-76
2021/07/03 04:51:18;;;;;;;8.25;5.95;;;;;;;15.46;80.23;100580.97;5035902;28;20052;-76
2021/07/03 04:53:43;;;;;;;6.72;5.45;;;;;;;15.55;80.00;100577.19;5044405;28;20378;-76
2021/07/03 04:56:09;;;;;;;8.90;6.75;;;;;;;15.79;78.06;100575.31;5036138;28;20045;-76
2021/07/03 04:58:34;;;;;;;7.65;6.22;;;;;;;15.80;78.69;100580.47;5037466;28;20037;-76
2021/07/03 05:00:59;;;;;;;6.90;5.90;;;;;;;15.90;78.53;100570.34;5037433;28;20038;-76
2021/07/03 05:03:25;;;;;;;6.60;5.38;;;;;;;16.01;78.24;100571.69;5045164;28;20060;-76
2021/07/03 05:05:50;;;;;;;8.02;6.30;;;;;;;16.16;77.59;100568.16;5036565;28;20068;-76
2021/07/03 05:08:15;;;;;;;8.50;6.20;;;;;;;16.20;77.51;100572.94;5038004;28;20444;-76
2021/07/03 05:10:41;;;;;;;8.25;6.65;;;;;;;16.32;76.98;100568.75;5035808;28;20036;-76
2021/07/03 05:13:06;;;;;;;7.43;5.88;;;;;;;16.39;76.41;100565.34;5040401;28;20049;-76
2021/07/03 05:15:31;;;;;;;8.50;6.47;;;;;;;16.46;76.34;100564.41;5027208;28;20403;-76
2021/07/03 05:17:56;;;;;;;8.45;5.47;;;;;;;16.53;76.41;100559.13;5043045;28;20041;-76
2021/07/03 05:20:22;;;;;;;8.18;6.35;;;;;;;16.57;76.39;100557.75;5044335;28;20048;-76
2021/07/03 05:22:47;;;;;;;7.22;5.75;;;;;;;16.64;76.15;100557.81;5057738;28;20045;-77
2021/07/03 05:25:13;;;;;;;7.32;5.65;;;;;;;16.64;75.61;100561.31;5035204;28;20042;-76
2021/07/03 05:27:38;;;;;;;6.65;5.70;;;;;;;16.63;76.40;100566.84;5044084;28;20039;-76
2021/07/03 05:30:05;;;;;;;7.32;6.03;;;;;;;16.66;76.11;100567.28;5047850;28;20047;-77
2021/07/03 05:32:30;;;;;;;7.25;6.10;;;;;;;16.74;75.71;100556.47;5054596;28;20028;-76
2021/07/03 05:34:56;;;;;;;7.57;6.05;;;;;;;16.76;75.61;100561.63;5036781;28;20532;-77
2021/07/03 05:37:21;;;;;;;7.13;6.05;;;;;;;16.80;75.76;100567.44;5044387;28;20033;-77
2021/07/03 05:39:46;;;;;;;7.30;5.82;;;;;;;16.91;75.85;100565.06;5043421;28;20026;-77
2021/07/03 05:42:12;;;;;;;6.18;5.18;;;;;;;17.04;76.27;100574.22;5036025;28;20104;-77
2021/07/03 05:44:37;;;;;;;8.20;5.60;;;;;;;17.11;75.72;100572.41;5044666;28;20071;-77
2021/07/03 05:47:03;;;;;;;7.28;5.38;;;;;;;17.17;75.49;100582.34;5059438;28;20048;-76
2021/07/03 05:49:28;;;;;;;6.07;5.03;;;;;;;17.26;75.18;100578.50;5043339;28;20030;-76
2021/07/03 05:51:53;;;;;;;5.95;5.10;;;;;;;17.41;75.42;100575.72;5042180;28;20048;-76
2021/07/03 05:54:19;;;;;;;6.00;5.28;;;;;;;17.78;75.29;100571.84;5045093;28;20593;-76
2021/07/03 05:56:44;;;;;;;10.35;5.93;;;;;;;18.44;72.78;100570.47;5036816;28;20038;-76
2021/07/03 05:59:10;;;;;;;8.00;5.43;;;;;;;19.02;71.58;100569.94;5035172;28;20031;-76
2021/07/03 06:01:35;;;;;;;5.85;5.00;;;;;;;19.64;69.62;100563.28;5028586;28;20044;-76
2021/07/03 06:04:00;;;;;;;7.22;5.45;;;;;;;20.19;67.73;100567.41;5033945;28;20037;-76
2021/07/03 06:06:26;;;;;;;7.30;5.15;;;;;;;20.51;67.77;100570.97;5028245;28;20061;-76
2021/07/03 06:08:51;;;;;;;6.05;4.85;;;;;;;20.92;65.76;100570.50;5028502;28;20044;-76
2021/07/03 06:11:16;;;;;;;10.38;5.85;;;;;;;21.32;64.65;100574.72;5043196;28;20029;-76
2021/07/03 06:13:42;;;;;;;6.88;5.00;;;;;;;21.72;64.11;100569.78;5042148;28;20168;-76
2021/07/03 06:16:08;;;;;;;6.57;4.97;;;;;;;21.95;60.56;100570.97;5036471;28;20431;-77
2021/07/03 06:18:33;;;;;;;5.97;4.95;;;;;;;21.95;61.27;100570.97;5044130;28;20510;-76
2021/07/03 06:20:58;;;;;;;4.45;4.05;;;;;;;22.23;60.12;100576.63;5036351;28;20034;-77
2021/07/03 06:23:25;;;;;;;5.03;4.50;;;;;;;22.54;62.92;100568.56;5036035;28;20033;-76
2021/07/03 06:25:51;;;;;;;6.55;4.55;;;;;;;23.04;61.74;100566.34;5044607;28;20045;-77
2021/07/03 06:28:16;;;;;;;6.00;5.00;;;;;;;23.30;59.38;100565.03;5033325;28;20448;-76
2021/07/03 06:30:42;;;;;;;5.40;4.32;;;;;;;23.69;59.67;100564.53;5049971;28;20088;-75
2021/07/03 06:33:07;;;;;;;5.45;4.65;;;;;;;24.04;55.24;100561.78;5032226;28;20038;-76
2021/07/03 06:35:32;;;;;;;5.35;4.63;;;;;;;24.46;57.57;100561.53;5030989;28;20400;-75
2021/07/03 06:37:58;;;;;;;5.75;4.53;;;;;;;24.77;55.27;100565.56;5030066;28;20026;-76
2021/07/03 06:40:23;;;;;;;5.60;4.85;;;;;;;24.85;53.44;100563.53;5030667;28;20426;-75
2021/07/03 06:42:49;;;;;;;6.75;4.72;;;;;;;25.01;54.21;100560.81;5029361;28;20127;-76
2021/07/03 06:45:14;;;;;;;4.88;3.80;;;;;;;25.30;50.02;100563.44;5031975;28;20037;-76
2021/07/03 06:47:39;;;;;;;4.55;3.90;;;;;;;25.49;54.37;100563.97;5031426;28;20128;-76
2021/07/03 06:50:06;;;;;;;5.97;4.30;;;;;;;25.59;51.13;100564.09;5027438;28;20035;-76
2021/07/03 06:52:31;;;;;;;6.18;5.07;;;;;;;25.64;52.18;100558.75;5029737;28;20072;-76
2021/07/03 06:54:56;;;;;;;5.15;4.30;;;;;;;25.63;49.62;100562.56;5028486;28;20115;-76
2021/07/03 06:57:22;;;;;;;5.57;4.65;;;;;;;25.96;50.56;100568.13;5030084;28;20517;-76
2021/07/03 06:59:47;;;;;;;4.78;3.80;;;;;;;26.31;49.11;100570.41;5027833;28;20044;-76
2021/07/03 07:02:13;;;;;;;5.22;4.68;;;;;;;26.52;48.30;100571.44;5029373;28;20428;-76
2021/07/03 07:04:38;;;;;;;5.38;4.18;;;;;;;27.02;54.45;100569.44;5028539;28;20037;-76
2021/07/03 07:07:03;;;;;;;6.28;4.10;;;;;;;27.28;49.04;100562.31;5029118;28;20394;-76
2021/07/03 07:09:29;;;;;;;5.13;4.32;;;;;;;27.26;45.83;100568.00;5038746;28;20393;-76
2021/07/03 07:11:58;;;;;;;7.70;5.05;;;;;;;27.32;48.65;100564.25;5040927;28;20037;-76
2021/07/03 07:14:24;;;;;;;5.80;4.00;;;;;;;27.45;48.55;100559.44;5048699;28;20037;-76
2021/07/03 07:16:49;;;;;;;6.68;4.60;;;;;;;27.18;44.47;100554.09;5032029;28;20064;-76
2021/07/03 07:19:15;;;;;;;6.18;4.65;;;;;;;26.85;49.75;100553.31;5033169;28;20033;-76
2021/07/03 07:21:40;;;;;;;7.68;5.07;;;;;;;27.39;46.97;100558.59;5034130;28;20068;-76
2021/07/03 07:24:06;;;;;;;5.90;4.07;;;;;;;27.38;47.60;100553.41;5032805;28;20041;-76
2021/07/03 07:26:33;;;;;;;5.88;4.10;;;;;;;27.84;48.02;100546.34;5032108;28;20123;-76
2021/07/03 07:28:58;;;;;;;4.60;3.63;;;;;;;28.16;44.09;100548.06;5026431;28;20036;-76
2021/07/03 07:31:24;;;;;;;5.50;4.53;;;;;;;28.53;45.00;100553.31;5036376;28;20021;-76
2021/07/03 07:33:49;;;;;;;5.00;3.70;;;;;;;28.75;42.13;100547.59;5035045;28;20102;-76
2021/07/03 07:36:15;;;;;;;4.88;3.95;;;;;;;28.75;43.81;100547.59;5043798;28;20159;-76
2021/07/03 07:38:40;;;;;;;5.13;3.80;;;;;;;29.10;41.23;100545.13;5032870;28;20462;-76
2021/07/03 07:41:06;;;;;;;5.70;3.60;;;;;;;29.05;45.17;100537.75;5032751;28;20141;-76
2021/07/03 07:43:32;;;;;;;5.53;4.00;;;;;;;29.58;42.23;100543.66;5041930;28;20474;-76
2021/07/03 07:45:57;;;;;;;5.28;4.07;;;;;;;29.84;40.79;100546.28;5026687;28;20069;-76
2021/07/03 07:48:23;;;;;;;4.60;3.15;;;;;;;29.90;42.48;100547.09;5036513;28;20653;-76
2021/07/03 07:50:49;;;;;;;4.03;3.42;;;;;;;30.20;38.35;100549.66;5029803;28;20037;-77
2021/07/03 07:53:14;;;;;;;5.20;4.30;;;;;;;30.29;39.31;100544.41;5033089;28;20518;-76
2021/07/03 07:55:40;;;;;;;4.18;3.40;;;;;;;29.96;41.07;100549.53;5047207;28;20036;-76
2021/07/03 07:58:05;;;;;;;4.65;3.15;;;;;;;30.00;39.18;100538.84;5023794;28;20042;-76
2021/07/03 08:00:31;;;;;;;6.75;4.10;;;;;;;30.01;40.36;100544.03;5020922;28;20452;-77
2021/07/03 08:02:56;;;;;;;4.32;3.90;;;;;;;29.05;42.03;100534.22;5019697;28;20037;-76
2021/07/03 08:05:22;;;;;;;5.22;4.15;;;;;;;29.75;40.03;100548.00;5039851;28;20506;-76
2021/07/03 08:07:47;;;;;;;5.63;4.20;;;;;;;30.07;39.43;100539.34;5031455;28;20048;-76
2021/07/03 08:10:14;;;;;;;4.82;4.22;;;;;;;30.57;38.37;100551.03;5028600;28;20041;-76
2021/07/03 08:12:41;;;;;;;4.80;3.40;;;;;;;30.80;37.38;100544.03;5033534;28;20038;-76
2021/07/03 08:15:07;;;;;;;4.00;3.35;;;;;;;30.80;38.02;100545.97;5030862;28;20393;-76
2021/07/03 08:17:32;;;;;;;4.47;3.40;;;;;;;31.16;37.76;100541.00;5031458;28;20039;-76
2021/07/03 08:19:58;;;;;;;5.32;3.70;;;;;;;31.53;37.38;100539.50;5028336;28;20029;-76
2021/07/03 08:22:24;;;;;;;4.32;3.22;;;;;;;31.73;36.04;100533.78;5045342;28;20033;-76
2021/07/03 08:24:49;;;;;;;4.40;3.40;;;;;;;32.06;34.19;100528.44;5046797;28;20038;-77
2021/07/03 08:27:15;;;;;;;4.00;3.30;;;;;;;32.38;35.55;100532.34;5031890;28;20040;-77
2021/07/03 08:29:40;;;;;;;4.72;3.63;;;;;;;31.91;34.83;100532.16;5031237;28;20117;-77
2021/07/03 08:32:06;;;;;;;4.07;3.65;;;;;;;32.14;34.14;100525.03;5031819;28;20103;-77
2021/07/03 08:34:31;;;;;;;4.95;3.30;;;;;;;31.30;35.08;100519.25;5026217;28;20042;-76
2021/07/03 08:36:57;;;;;;;4.07;3.45;;;;;;;31.81;32.67;100520.56;5024949;28;20040;-76
2021/07/03 08:39:22;;;;;;;5.45;3.60;;;;;;;32.12;34.51;100510.84;5050788;28;20382;-76
2021/07/03 08:41:47;;;;;;;6.00;3.90;;;;;;;32.60;31.32;100515.31;5037915;28;20061;-77
2021/07/03 08:44:14;;;;;;;4.97;3.50;;;;;;;32.68;34.30;100517.38;5033560;28;20041;-78
2021/07/03 08:46:43;;;;;;;4.35;3.25;;;;;;;32.56;33.17;100508.78;5031245;28;20513;-76
2021/07/03 08:49:08;;;;;;;3.38;2.90;;;;;;;32.71;33.03;100503.06;5060726;28;20544;-76
2021/07/03 08:51:34;;;;;;;3.20;2.50;;;;;;;32.99;31.66;100506.66;5023776;28;20030;-77
2021/07/03 08:54:01;;;;;;;5.55;3.45;;;;;;;32.38;30.18;100502.22;5030567;28;20093;-76
2021/07/03 08:56:27;;;;;;;4.20;3.38;;;;;;;32.88;31.99;100505.22;5029794;28;20034;-76
2021/07/03 08:58:52;;;;;;;3.38;3.08;;;;;;;33.26;31.84;100498.81;5029121;28;20475;-76
2021/07/03 09:01:17;;;;;;;3.70;3.30;;;;;;;33.19;32.37;100499.19;5043093;28;20077;-76
2021/07/03 09:03:56;;;;;;;4.63;3.58;;;;;;;33.63;30.97;100493.09;5025296;28;20035;-76
2021/07/03 09:06:30;;;;;;;6.35;3.70;;;;;;;34.03;30.39;100498.78;5029336;28;20103;-77
2021/07/03 09:08:55;;;;;;;4.15;3.13;;;;;;;34.31;30.53;100495.97;5031153;28;20544;-76
2021/07/03 09:11:20;;;;;;;4.82;2.80;;;;;;;33.97;28.53;100504.72;5030838;28;20085;-76
2021/07/03 09:14:00;;;;;;;4.97;3.63;;;;;;;33.86;30.47;100495.09;5034627;28;20033;-76
2021/07/03 09:16:35;;;;;;;4.60;2.93;;;;;;;32.65;33.63;100487.84;5037406;28;20567;-77
2021/07/03 09:19:02;;;;;;;4.40;3.33;;;;;;;32.76;32.41;100493.94;5033425;28;20033;-77
2021/07/03 09:21:29;;;;;;;4.05;3.10;;;;;;;32.63;32.89;100498.28;5031398;28;20397;-77
2021/07/03 09:23:54;;;;;;;4.15;3.65;;;;;;;32.61;30.84;100483.25;5046424;28;20568;-77
2021/07/03 09:26:20;;;;;;;5.18;3.22;;;;;;;31.88;31.64;100489.00;5028751;28;20037;-77
2021/07/03 09:28:47;;;;;;;3.50;3.00;;;;;;;31.03;32.49;100479.66;5030663;28;20514;-76
2021/07/03 09:31:15;;;;;;;4.25;2.80;;;;;;;31.53;34.15;100476.63;5034171;28;20064;-76
2021/07/03 09:33:59;;;;;;;3.50;2.97;;;;;;;31.20;34.83;100476.47;5025195;28;20038;-76
2021/07/03 09:36:30;;;;;;;5.05;3.13;;;;;;;31.39;33.26;100472.97;5035685;28;20107;-76
2021/07/03 09:38:57;;;;;;;4.03;2.63;;;;;;;31.13;32.96;100472.44;5022778;28;20033;-76
2021/07/03 09:41:31;;;;;;;3.10;2.50;;;;;;;30.85;36.15;100472.22;5025517;28;20040;-76
2021/07/03 09:44:08;;;;;;;3.88;2.95;;;;;;;30.41;35.37;100473.94;5031256;28;20052;-77
2021/07/03 09:46:35;;;;;;;4.70;3.00;;;;;;;30.52;32.92;100474.69;5016037;28;20034;-76
2021/07/03 09:49:09;;;;;;;3.08;2.78;;;;;;;30.69;34.31;100464.13;5033875;28;20038;-77
2021/07/03 09:51:42;;;;;;;3.63;3.00;;;;;;;30.54;33.97;100471.66;5011864;28;20033;-77
2021/07/03 09:54:09;;;;;;;3.50;3.00;;;;;;;30.98;32.57;100463.31;5029046;28;20040;-77
2021/07/03 09:56:36;;;;;;;3.78;3.10;;;;;;;31.00;32.56;100472.03;5029726;28;20509;-77
2021/07/03 09:59:03;;;;;;;4.53;3.10;;;;;;;30.76;31.94;100457.53;5028562;28;20112;-76
2021/07/03 10:01:28;;;;;;;3.45;2.88;;;;;;;30.05;34.96;100465.19;5031707;28;20037;-76
2021/07/03 10:03:53;;;;;;;3.97;3.30;;;;;;;30.73;32.25;100458.13;5043282;28;20034;-76
2021/07/03 10:06:33;;;;;;;3.75;3.08;;;;;;;29.55;35.87;100451.56;5028795;28;20048;-76
2021/07/03 10:09:04;;;;;;;3.58;3.00;;;;;;;29.78;36.19;100462.91;5021074;28;20588;-76
2021/07/03 10:11:32;;;;;;;3.78;3.10;;;;;;;30.13;34.49;100456.41;5026654;28;20041;-76
2021/07/03 10:14:03;;;;;;;3.65;2.60;;;;;;;30.29;33.28;100448.94;5028917;28;20072;-76
2021/07/03 10:16:29;;;;;;;3.90;2.85;;;;;;;30.12;32.47;100446.59;5028828;28;20451;-76
2021/07/03 10:19:17;;;;;;;4.70;3.10;;;;;;;30.05;34.02;100440.66;5026863;28;20538;-76
2021/07/03 10:21:44;;;;;;;3.85;3.38;;;;;;;29.59;35.60;100443.66;5015885;28;20068;-75
2021/07/03 10:24:18;;;;;;;4.40;3.20;;;;;;;30.04;34.65;100447.22;5028037;28;20037;-76
2021/07/03 10:26:44;;;;;;;4.32;3.00;;;;;;;29.98;34.61;100442.88;5043300;28;20041;-76
2021/07/03 10:29:22;;;;;;;3.55;3.05;;;;;;;29.94;34.13;100447.25;5026219;28;20038;-76
2021/07/03 10:31:50;;;;;;;4.43;3.50;;;;;;;30.01;32.60;100442.31;5029293;28;20150;-76
2021/07/03 10:34:29;;;;;;;4.30;3.40;;;;;;;30.10;33.26;100439.78;5035733;28;20093;-76
2021/07/03 10:37:03;;;;;;;4.65;3.88;;;;;;;30.12;33.07;100443.88;5030140;28;20095;-76
2021/07/03 10:39:30;;;;;;;3.60;3.30;;;;;;;29.85;33.44;100436.97;5027184;28;20502;-76
2021/07/03 10:41:55;;;;;;;3.80;3.30;;;;;;;29.58;34.02;100429.22;5029366;28;20480;-75
2021/07/03 10:44:21;;;;;;;3.97;3.30;;;;;;;29.59;35.09;100430.03;5019082;28;20070;-76
2021/07/03 10:46:48;;;;;;;4.38;3.70;;;;;;;29.72;34.86;100428.59;5029657;28;20109;-76
2021/07/03 10:49:20;;;;;;;4.50;3.50;;;;;;;29.90;33.35;100421.69;5028000;28;20033;-76
2021/07/03 10:51:48;;;;;;;6.18;4.30;;;;;;;29.97;32.73;100424.91;5029759;28;20041;-76
2021/07/03 10:54:26;;;;;;;3.97;3.20;;;;;;;30.03;33.50;100415.56;5053223;28;20536;-75
2021/07/03 10:57:00;;;;;;;3.78;3.38;;;;;;;30.09;33.50;100416.38;5048391;28;20073;-76
2021/07/03 10:59:27;;;;;;;4.43;3.38;;;;;;;29.74;34.99;100413.59;5032679;28;20067;-76
2021/07/03 11:02:04;;;;;;;4.40;3.40;;;;;;;29.80;33.67;100409.75;5029721;28;20387;-76
2021/07/03 11:04:29;;;;;;;5.15;3.38;;;;;;;29.60;34.03;100405.22;5025835;28;20037;-76
2021/07/03 11:06:54;;;;;;;3.50;3.20;;;;;;;29.85;33.15;100401.53;5022626;28;20634;-76
2021/07/03 11:09:30;;;;;;;5.00;3.42;;;;;;;29.74;34.12;100399.16;5028264;28;20375;-75
2021/07/03 11:12:18;;;;;;;4.80;3.20;;;;;;;29.95;31.86;100399.84;5031610;28;20053;-75
2021/07/03 11:14:56;;;;;;;4.05;3.05;;;;;;;29.72;34.09;100402.16;5022438;28;20048;-75
2021/07/03 11:17:23;;;;;;;3.92;2.88;;;;;;;29.83;33.58;100395.53;5032415;28;20025;-75
2021/07/03 11:19:52;;;;;;;3.67;2.90;;;;;;;30.01;32.57;100396.78;5030466;28;20033;-75
2021/07/03 11:22:22;;;;;;;3.85;2.97;;;;;;;30.15;30.50;100396.13;5043917;28;20030;-75